sensor_id;sensor_type;location;lat;lon;timestamp;P1;durP1;ratioP1;P2;durP2;ratioP2
55527;SDS011;52818;43.308;21.916;2023-12-20T00:01:48;79.20;;;49.80;;
55527;SDS011;52818;43.308;21.916;2023-12-20T00:03:48;81.50;;;49.00;;
55527;SDS011;52818;43.308;21.916;2023-12-20T00:05:48;79.80;;;49.60;;
55527;SDS011;52818;43.308;21.916;2023-12-20T00:07:48;57.10;;;35.50;;
55527;SDS011;52818;43.308;21.916;2023-12-20T00:09:48;40.30;;;27.20;;
55527;SDS011;52818;43.308;21.916;2023-12-20T00:11:48;36.20;;;25.80;;
55527;SDS011;52818;43.308;21.916;2023-12-20T00:13:48;35.20;;;24.20;;
55527;SDS011;52818;43.308;21.916;2023-12-20T00:15:48;38.70;;;27.20;;
55527;SDS011;52818;43.308;21.916;2023-12-20T00:17:49;39.80;;;27.40;;
55527;SDS011;52818;43.308;21.916;2023-12-20T00:19:49;36.90;;;24.90;;
55527;SDS011;52818;43.308;21.916;2023-12-20T00:21:49;31.10;;;21.90;;
55527;SDS011;52818;43.308;21.916;2023-12-20T00:23:49;27.50;;;18.80;;
55527;SDS011;52818;43.308;21.916;2023-12-20T00:25:49;28.50;;;19.80;;
55527;SDS011;52818;43.308;21.916;2023-12-20T00:27:49;29.00;;;19.40;;
55527;SDS011;52818;43.308;21.916;2023-12-20T00:29:49;28.30;;;19.90;;
55527;SDS011;52818;43.308;21.916;2023-12-20T00:31:49;29.30;;;20.20;;
55527;SDS011;52818;43.308;21.916;2023-12-20T00:33:50;30.60;;;21.60;;
55527;SDS011;52818;43.308;21.916;2023-12-20T00:35:49;36.60;;;25.00;;
55527;SDS011;52818;43.308;21.916;2023-12-20T00:37:50;38.10;;;27.10;;
55527;SDS011;52818;43.308;21.916;2023-12-20T00:39:50;45.50;;;30.20;;
55527;SDS011;52818;43.308;21.916;2023-12-20T00:41:50;42.20;;;29.10;;
55527;SDS011;52818;43.308;21.916;2023-12-20T00:43:50;37.40;;;27.20;;
55527;SDS011;52818;43.308;21.916;2023-12-20T00:45:50;38.00;;;27.00;;
55527;SDS011;52818;43.308;21.916;2023-12-20T00:47:50;37.40;;;26.30;;
55527;SDS011;52818;43.308;21.916;2023-12-20T00:49:50;32.70;;;24.00;;
55527;SDS011;52818;43.308;21.916;2023-12-20T00:51:50;29.80;;;22.40;;
55527;SDS011;52818;43.308;21.916;2023-12-20T00:53:50;26.60;;;20.00;;
55527;SDS011;52818;43.308;21.916;2023-12-20T00:55:52;28.30;;;21.00;;
55527;SDS011;52818;43.308;21.916;2023-12-20T00:57:51;25.80;;;18.90;;
55527;SDS011;52818;43.308;21.916;2023-12-20T00:59:51;24.40;;;17.30;;
55527;SDS011;52818;43.308;21.916;2023-12-20T01:01:51;23.90;;;17.60;;
55527;SDS011;52818;43.308;21.916;2023-12-20T01:03:51;26.80;;;18.30;;
55527;SDS011;52818;43.308;21.916;2023-12-20T01:05:51;26.00;;;18.10;;
55527;SDS011;52818;43.308;21.916;2023-12-20T01:07:51;23.80;;;17.90;;
55527;SDS011;52818;43.308;21.916;2023-12-20T01:09:51;27.10;;;18.90;;
55527;SDS011;52818;43.308;21.916;2023-12-20T01:11:51;35.20;;;24.80;;
55527;SDS011;52818;43.308;21.916;2023-12-20T01:13:51;46.10;;;29.30;;
55527;SDS011;52818;43.308;21.916;2023-12-20T01:15:52;55.50;;;35.80;;
55527;SDS011;52818;43.308;21.916;2023-12-20T01:17:51;73.20;;;44.70;;
55527;SDS011;52818;43.308;21.916;2023-12-20T01:19:52;68.10;;;41.00;;
55527;SDS011;52818;43.308;21.916;2023-12-20T01:21:52;46.30;;;30.00;;
55527;SDS011;52818;43.308;21.916;2023-12-20T01:23:52;36.80;;;25.60;;
55527;SDS011;52818;43.308;21.916;2023-12-20T01:25:52;35.90;;;22.90;;
55527;SDS011;52818;43.308;21.916;2023-12-20T01:27:52;36.90;;;23.30;;
55527;SDS011;52818;43.308;21.916;2023-12-20T01:29:52;31.80;;;21.10;;
55527;SDS011;52818;43.308;21.916;2023-12-20T01:31:52;30.50;;;20.20;;
55527;SDS011;52818;43.308;21.916;2023-12-20T01:33:52;27.50;;;18.70;;
55527;SDS011;52818;43.308;21.916;2023-12-20T01:35:52;24.40;;;17.10;;
55527;SDS011;52818;43.308;21.916;2023-12-20T01:37:53;22.40;;;16.10;;
55527;SDS011;52818;43.308;21.916;2023-12-20T01:39:53;22.90;;;16.00;;
55527;SDS011;52818;43.308;21.916;2023-12-20T01:41:53;21.70;;;14.40;;
55527;SDS011;52818;43.308;21.916;2023-12-20T01:43:53;19.00;;;13.90;;
55527;SDS011;52818;43.308;21.916;2023-12-20T01:45:53;23.40;;;15.10;;
55527;SDS011;52818;43.308;21.916;2023-12-20T01:47:53;25.70;;;16.20;;
55527;SDS011;52818;43.308;21.916;2023-12-20T01:49:53;27.10;;;16.30;;
55527;SDS011;52818;43.308;21.916;2023-12-20T01:51:53;29.80;;;18.00;;
55527;SDS011;52818;43.308;21.916;2023-12-20T01:53:54;35.60;;;19.90;;
55527;SDS011;52818;43.308;21.916;2023-12-20T01:55:54;29.70;;;17.90;;
55527;SDS011;52818;43.308;21.916;2023-12-20T01:57:54;27.70;;;17.30;;
55527;SDS011;52818;43.308;21.916;2023-12-20T01:59:54;24.00;;;16.20;;
55527;SDS011;52818;43.308;21.916;2023-12-20T02:01:54;24.60;;;16.00;;
55527;SDS011;52818;43.308;21.916;2023-12-20T02:03:54;22.90;;;15.80;;
55527;SDS011;52818;43.308;21.916;2023-12-20T02:05:54;45.10;;;28.70;;
55527;SDS011;52818;43.308;21.916;2023-12-20T02:07:54;77.20;;;42.90;;
55527;SDS011;52818;43.308;21.916;2023-12-20T02:09:54;72.80;;;44.80;;
55527;SDS011;52818;43.308;21.916;2023-12-20T02:11:54;65.00;;;38.70;;
55527;SDS011;52818;43.308;21.916;2023-12-20T02:13:54;100.60;;;56.50;;
55527;SDS011;52818;43.308;21.916;2023-12-20T02:15:54;106.30;;;60.10;;
55527;SDS011;52818;43.308;21.916;2023-12-20T02:17:55;99.50;;;56.80;;
55527;SDS011;52818;43.308;21.916;2023-12-20T02:19:55;98.00;;;57.50;;
55527;SDS011;52818;43.308;21.916;2023-12-20T02:22:04;126.70;;;73.40;;
55527;SDS011;52818;43.308;21.916;2023-12-20T02:23:55;123.50;;;71.90;;
55527;SDS011;52818;43.308;21.916;2023-12-20T02:25:55;75.50;;;47.00;;
55527;SDS011;52818;43.308;21.916;2023-12-20T02:27:55;81.90;;;50.40;;
55527;SDS011;52818;43.308;21.916;2023-12-20T02:29:55;72.20;;;43.90;;
55527;SDS011;52818;43.308;21.916;2023-12-20T02:31:55;55.60;;;34.90;;
55527;SDS011;52818;43.308;21.916;2023-12-20T02:33:55;47.70;;;30.00;;
55527;SDS011;52818;43.308;21.916;2023-12-20T02:35:55;42.70;;;27.40;;
55527;SDS011;52818;43.308;21.916;2023-12-20T02:37:56;51.50;;;32.70;;
55527;SDS011;52818;43.308;21.916;2023-12-20T02:39:56;37.20;;;25.30;;
55527;SDS011;52818;43.308;21.916;2023-12-20T02:41:56;32.50;;;21.70;;
55527;SDS011;52818;43.308;21.916;2023-12-20T02:43:56;29.50;;;19.90;;
55527;SDS011;52818;43.308;21.916;2023-12-20T02:45:56;27.40;;;18.10;;
55527;SDS011;52818;43.308;21.916;2023-12-20T02:47:56;26.10;;;17.70;;
55527;SDS011;52818;43.308;21.916;2023-12-20T02:49:56;27.50;;;18.00;;
55527;SDS011;52818;43.308;21.916;2023-12-20T02:51:56;26.70;;;18.20;;
55527;SDS011;52818;43.308;21.916;2023-12-20T02:53:57;28.30;;;18.80;;
55527;SDS011;52818;43.308;21.916;2023-12-20T02:55:57;26.20;;;18.10;;
55527;SDS011;52818;43.308;21.916;2023-12-20T02:57:57;26.80;;;18.70;;
55527;SDS011;52818;43.308;21.916;2023-12-20T02:59:57;23.80;;;18.30;;
55527;SDS011;52818;43.308;21.916;2023-12-20T03:01:57;25.20;;;17.90;;
55527;SDS011;52818;43.308;21.916;2023-12-20T03:03:57;24.50;;;17.60;;
55527;SDS011;52818;43.308;21.916;2023-12-20T03:05:58;24.70;;;;;
55527;SDS011;52818;43.308;21.916;2023-12-20T03:07:57;24.10;;;18.30;;
55527;SDS011;52818;43.308;21.916;2023-12-20T03:09:57;24.20;;;17.70;;
55527;SDS011;52818;43.308;21.916;2023-12-20T03:11:57;26.50;;;18.40;;
55527;SDS011;52818;43.308;21.916;2023-12-20T03:13:57;35.30;;;25.00;;
55527;SDS011;52818;43.308;21.916;2023-12-20T03:15:57;30.60;;;21.90;;
55527;SDS011;52818;43.308;21.916;2023-12-20T03:17:58;27.70;;;19.70;;
55527;SDS011;52818;43.308;21.916;2023-12-20T03:19:58;24.50;;;17.90;;
55527;SDS011;52818;43.308;21.916;2023-12-20T03:21:58;22.50;;;17.00;;
55527;SDS011;52818;43.308;21.916;2023-12-20T03:23:58;25.40;;;17.40;;
55527;SDS011;52818;43.308;21.916;2023-12-20T03:25:58;26.20;;;18.90;;
55527;SDS011;52818;43.308;21.916;2023-12-20T03:27:59;;;;18.40;;
55527;SDS011;52818;43.308;21.916;2023-12-20T03:29:58;24.60;;;17.70;;
55527;SDS011;52818;43.308;21.916;2023-12-20T03:31:58;24.40;;;17.30;;
55527;SDS011;52818;43.308;21.916;2023-12-20T03:33:58;22.00;;;16.80;;
55527;SDS011;52818;43.308;21.916;2023-12-20T03:35:58;21.10;;;16.00;;
55527;SDS011;52818;43.308;21.916;2023-12-20T03:37:58;22.40;;;16.50;;
55527;SDS011;52818;43.308;21.916;2023-12-20T03:39:59;21.90;;;16.30;;
55527;SDS011;52818;43.308;21.916;2023-12-20T03:41:59;22.00;;;16.50;;
55527;SDS011;52818;43.308;21.916;2023-12-20T03:43:59;21.80;;;;;
55527;SDS011;52818;43.308;21.916;2023-12-20T03:45:59;23.90;;;17.20;;
55527;SDS011;52818;43.308;21.916;2023-12-20T03:47:59;22.20;;;16.40;;
55527;SDS011;52818;43.308;21.916;2023-12-20T03:49:59;25.20;;;17.00;;
55527;SDS011;52818;43.308;21.916;2023-12-20T03:51:59;23.50;;;17.40;;
55527;SDS011;52818;43.308;21.916;2023-12-20T03:53:59;24.30;;;16.90;;
55527;SDS011;52818;43.308;21.916;2023-12-20T03:55:59;34.50;;;22.90;;
55527;SDS011;52818;43.308;21.916;2023-12-20T03:58:00;29.30;;;20.00;;
55527;SDS011;52818;43.308;21.916;2023-12-20T04:00:00;29.70;;;19.80;;
55527;SDS011;52818;43.308;21.916;2023-12-20T04:02:00;34.40;;;20.50;;
55527;SDS011;52818;43.308;21.916;2023-12-20T04:04:00;32.60;;;20.80;;
55527;SDS011;52818;43.308;21.916;2023-12-20T04:06:00;29.50;;;19.40;;
55527;SDS011;52818;43.308;21.916;2023-12-20T04:08:00;28.80;;;20.40;;
55527;SDS011;52818;43.308;21.916;2023-12-20T04:10:00;29.50;;;20.20;;
55527;SDS011;52818;43.308;21.916;2023-12-20T04:12:00;28.70;;;20.30;;
55527;SDS011;52818;43.308;21.916;2023-12-20T04:14:00;30.60;;;20.90;;
55527;SDS011;52818;43.308;21.916;2023-12-20T04:16:01;37.20;;;25.20;;
55527;SDS011;52818;43.308;21.916;2023-12-20T04:18:01;34.10;;;22.90;;
55527;SDS011;52818;43.308;21.916;2023-12-20T04:20:01;34.80;;;23.20;;
55527;SDS011;52818;43.308;21.916;2023-12-20T04:22:01;32.50;;;23.00;;
55527;SDS011;52818;43.308;21.916;2023-12-20T04:24:01;;;;22.40;;
55527;SDS011;52818;43.308;21.916;2023-12-20T04:26:01;29.90;;;20.50;;
55527;SDS011;52818;43.308;21.916;2023-12-20T04:28:01;29.30;;;21.80;;
55527;SDS011;52818;43.308;21.916;2023-12-20T04:30:01;31.20;;;21.50;;
55527;SDS011;52818;43.308;21.916;2023-12-20T04:32:01;32.50;;;21.70;;
55527;SDS011;52818;43.308;21.916;2023-12-20T04:34:01;59.90;;;33.50;;
55527;SDS011;52818;43.308;21.916;2023-12-20T04:36:02;66.60;;;36.10;;
55527;SDS011;52818;43.308;21.916;2023-12-20T04:38:02;46.90;;;27.20;;
55527;SDS011;52818;43.308;21.916;2023-12-20T04:40:02;49.80;;;27.70;;
55527;SDS011;52818;43.308;21.916;2023-12-20T04:42:02;48.20;;;28.10;;
55527;SDS011;52818;43.308;21.916;2023-12-20T04:44:02;48.50;;;28.50;;
55527;SDS011;52818;43.308;21.916;2023-12-20T04:46:02;50.10;;;29.00;;
55527;SDS011;52818;43.308;21.916;2023-12-20T04:48:02;53.60;;;31.50;;
55527;SDS011;52818;43.308;21.916;2023-12-20T04:50:02;55.40;;;31.90;;
55527;SDS011;52818;43.308;21.916;2023-12-20T04:52:02;57.20;;;33.20;;
55527;SDS011;52818;43.308;21.916;2023-12-20T04:54:02;55.00;;;31.30;;
55527;SDS011;52818;43.308;21.916;2023-12-20T04:56:03;54.50;;;32.10;;
55527;SDS011;52818;43.308;21.916;2023-12-20T04:58:03;59.10;;;36.50;;
55527;SDS011;52818;43.308;21.916;2023-12-20T05:00:03;52.50;;;33.20;;
55527;SDS011;52818;43.308;21.916;2023-12-20T05:02:03;54.20;;;32.70;;
55527;SDS011;52818;43.308;21.916;2023-12-20T05:04:03;46.60;;;30.80;;
55527;SDS011;52818;43.308;21.916;2023-12-20T05:06:03;49.80;;;31.10;;
55527;SDS011;52818;43.308;21.916;2023-12-20T05:08:03;50.80;;;29.80;;
55527;SDS011;52818;43.308;21.916;2023-12-20T05:10:03;47.20;;;29.50;;
55527;SDS011;52818;43.308;21.916;2023-12-20T05:12:03;46.00;;;29.70;;
55527;SDS011;52818;43.308;21.916;2023-12-20T05:14:03;48.60;;;29.80;;
55527;SDS011;52818;43.308;21.916;2023-12-20T05:16:04;52.00;;;31.30;;
55527;SDS011;52818;43.308;21.916;2023-12-20T05:18:04;47.10;;;28.90;;
55527;SDS011;52818;43.308;21.916;2023-12-20T05:20:04;47.40;;;30.00;;
55527;SDS011;52818;43.308;21.916;2023-12-20T05:22:04;43.60;;;28.50;;
55527;SDS011;52818;43.308;21.916;2023-12-20T05:24:04;42.40;;;28.00;;
55527;SDS011;52818;43.308;21.916;2023-12-20T05:26:04;32.20;;;22.10;;
55527;SDS011;52818;43.308;21.916;2023-12-20T05:28:04;31.90;;;21.60;;
55527;SDS011;52818;43.308;21.916;2023-12-20T05:30:04;34.20;;;23.80;;
55527;SDS011;52818;43.308;21.916;2023-12-20T05:32:04;30.10;;;20.50;;
55527;SDS011;52818;43.308;21.916;2023-12-20T05:34:04;28.00;;;20.10;;
55527;SDS011;52818;43.308;21.916;2023-12-20T05:36:05;31.80;;;22.40;;
55527;SDS011;52818;43.308;21.916;2023-12-20T05:38:05;30.80;;;21.40;;
55527;SDS011;52818;43.308;21.916;2023-12-20T05:40:05;34.20;;;24.20;;
55527;SDS011;52818;43.308;21.916;2023-12-20T05:42:05;35.00;;;25.60;;
55527;SDS011;52818;43.308;21.916;2023-12-20T05:44:05;38.70;;;26.70;;
55527;SDS011;52818;43.308;21.916;2023-12-20T05:46:05;38.60;;;25.70;;
55527;SDS011;52818;43.308;21.916;2023-12-20T05:48:05;34.30;;;23.90;;
55527;SDS011;52818;43.308;21.916;2023-12-20T05:50:06;28.60;;;20.80;;
55527;SDS011;52818;43.308;21.916;2023-12-20T05:52:05;28.10;;;19.90;;
55527;SDS011;52818;43.308;21.916;2023-12-20T05:54:05;23.20;;;17.10;;
55527;SDS011;52818;43.308;21.916;2023-12-20T05:56:05;26.20;;;18.30;;
55527;SDS011;52818;43.308;21.916;2023-12-20T05:58:06;31.60;;;21.80;;
55527;SDS011;52818;43.308;21.916;2023-12-20T06:00:06;31.30;;;22.40;;
55527;SDS011;52818;43.308;21.916;2023-12-20T06:02:06;32.70;;;22.60;;
55527;SDS011;52818;43.308;21.916;2023-12-20T06:04:06;42.90;;;28.90;;
55527;SDS011;52818;43.308;21.916;2023-12-20T06:06:06;51.50;;;33.60;;
55527;SDS011;52818;43.308;21.916;2023-12-20T06:08:06;61.00;;;38.40;;
55527;SDS011;52818;43.308;21.916;2023-12-20T06:10:06;76.00;;;47.80;;
55527;SDS011;52818;43.308;21.916;2023-12-20T06:12:06;87.20;;;55.10;;
55527;SDS011;52818;43.308;21.916;2023-12-20T06:14:06;89.00;;;57.60;;
55527;SDS011;52818;43.308;21.916;2023-12-20T06:16:06;91.10;;;57.80;;
55527;SDS011;52818;43.308;21.916;2023-12-20T06:18:07;93.50;;;59.50;;
55527;SDS011;52818;43.308;21.916;2023-12-20T06:20:07;95.40;;;60.40;;
55527;SDS011;52818;43.308;21.916;2023-12-20T06:22:07;110.30;;;70.90;;
55527;SDS011;52818;43.308;21.916;2023-12-20T06:24:07;110.00;;;;;
55527;SDS011;52818;43.308;21.916;2023-12-20T06:26:07;113.50;;;74.10;;
55527;SDS011;52818;43.308;21.916;2023-12-20T06:28:07;117.60;;;75.70;;
55527;SDS011;52818;43.308;21.916;2023-12-20T06:30:07;115.70;;;72.90;;
55527;SDS011;52818;43.308;21.916;2023-12-20T06:32:07;118.70;;;76.30;;
55527;SDS011;52818;43.308;21.916;2023-12-20T06:34:07;119.10;;;75.00;;
55527;SDS011;52818;43.308;21.916;2023-12-20T06:36:07;113.10;;;72.60;;
55527;SDS011;52818;43.308;21.916;2023-12-20T06:38:08;109.00;;;69.70;;
55527;SDS011;52818;43.308;21.916;2023-12-20T06:40:08;104.50;;;64.20;;
55527;SDS011;52818;43.308;21.916;2023-12-20T06:42:08;99.90;;;63.80;;
55527;SDS011;52818;43.308;21.916;2023-12-20T06:44:08;89.30;;;56.10;;
55527;SDS011;52818;43.308;21.916;2023-12-20T06:46:08;62.60;;;42.50;;
55527;SDS011;52818;43.308;21.916;2023-12-20T06:48:08;61.10;;;42.70;;
55527;SDS011;52818;43.308;21.916;2023-12-20T06:50:08;48.00;;;33.60;;
55527;SDS011;52818;43.308;21.916;2023-12-20T06:52:08;34.40;;;24.70;;
55527;SDS011;52818;43.308;21.916;2023-12-20T06:54:08;29.90;;;23.00;;
55527;SDS011;52818;43.308;21.916;2023-12-20T06:56:10;30.70;;;22.40;;
55527;SDS011;52818;43.308;21.916;2023-12-20T06:58:09;31.80;;;23.80;;
55527;SDS011;52818;43.308;21.916;2023-12-20T07:00:10;33.30;;;23.60;;
55527;SDS011;52818;43.308;21.916;2023-12-20T07:02:09;;;;24.70;;
55527;SDS011;52818;43.308;21.916;2023-12-20T07:04:09;39.40;;;27.70;;
55527;SDS011;52818;43.308;21.916;2023-12-20T07:06:09;40.00;;;29.70;;
55527;SDS011;52818;43.308;21.916;2023-12-20T07:08:09;50.70;;;34.80;;
55527;SDS011;52818;43.308;21.916;2023-12-20T07:10:09;77.70;;;51.10;;
55527;SDS011;52818;43.308;21.916;2023-12-20T07:12:09;72.10;;;48.70;;
55527;SDS011;52818;43.308;21.916;2023-12-20T07:14:09;53.00;;;37.60;;
55527;SDS011;52818;43.308;21.916;2023-12-20T07:16:09;91.40;;;50.60;;
55527;SDS011;52818;43.308;21.916;2023-12-20T07:18:09;76.80;;;46.20;;
55527;SDS011;52818;43.308;21.916;2023-12-20T07:20:10;78.80;;;63.80;;
55527;SDS011;52818;43.308;21.916;2023-12-20T07:22:10;74.40;;;51.60;;
55527;SDS011;52818;43.308;21.916;2023-12-20T07:24:10;108.10;;;76.40;;
55527;SDS011;52818;43.308;21.916;2023-12-20T07:26:10;74.00;;;51.90;;
55527;SDS011;52818;43.308;21.916;2023-12-20T07:28:10;52.70;;;37.70;;
55527;SDS011;52818;43.308;21.916;2023-12-20T07:30:10;53.10;;;36.30;;
55527;SDS011;52818;43.308;21.916;2023-12-20T07:32:10;103.10;;;64.00;;
55527;SDS011;52818;43.308;21.916;2023-12-20T07:34:10;113.40;;;71.50;;
55527;SDS011;52818;43.308;21.916;2023-12-20T07:36:11;115.30;;;72.00;;
55527;SDS011;52818;43.308;21.916;2023-12-20T07:38:11;118.30;;;78.00;;
55527;SDS011;52818;43.308;21.916;2023-12-20T07:40:11;132.60;;;86.00;;
55527;SDS011;52818;43.308;21.916;2023-12-20T07:42:11;148.80;;;95.50;;
55527;SDS011;52818;43.308;21.916;2023-12-20T07:44:11;156.50;;;100.20;;
55527;SDS011;52818;43.308;21.916;2023-12-20T07:46:11;166.80;;;106.50;;
55527;SDS011;52818;43.308;21.916;2023-12-20T07:48:11;162.90;;;106.80;;
55527;SDS011;52818;43.308;21.916;2023-12-20T07:50:11;166.20;;;107.50;;
55527;SDS011;52818;43.308;21.916;2023-12-20T07:52:11;167.20;;;110.10;;
55527;SDS011;52818;43.308;21.916;2023-12-20T07:54:11;172.20;;;112.60;;
55527;SDS011;52818;43.308;21.916;2023-12-20T07:56:13;173.90;;;117.60;;
55527;SDS011;52818;43.308;21.916;2023-12-20T07:58:12;182.60;;;121.80;;
55527;SDS011;52818;43.308;21.916;2023-12-20T08:00:12;177.50;;;119.70;;
55527;SDS011;52818;43.308;21.916;2023-12-20T08:02:12;182.90;;;121.00;;
55527;SDS011;52818;43.308;21.916;2023-12-20T08:04:12;176.70;;;117.90;;
55527;SDS011;52818;43.308;21.916;2023-12-20T08:06:12;181.10;;;120.30;;
55527;SDS011;52818;43.308;21.916;2023-12-20T08:08:12;173.00;;;119.10;;
55527;SDS011;52818;43.308;21.916;2023-12-20T08:10:12;173.60;;;122.20;;
55527;SDS011;52818;43.308;21.916;2023-12-20T08:12:12;180.80;;;125.90;;
55527;SDS011;52818;43.308;21.916;2023-12-20T08:14:12;181.20;;;125.60;;
55527;SDS011;52818;43.308;21.916;2023-12-20T08:16:12;191.00;;;131.90;;
55527;SDS011;52818;43.308;21.916;2023-12-20T08:18:12;192.70;;;131.00;;
55527;SDS011;52818;43.308;21.916;2023-12-20T08:20:13;208.90;;;138.70;;
55527;SDS011;52818;43.308;21.916;2023-12-20T08:22:13;210.30;;;138.00;;
55527;SDS011;52818;43.308;21.916;2023-12-20T08:24:13;206.10;;;139.60;;
55527;SDS011;52818;43.308;21.916;2023-12-20T08:26:13;212.10;;;143.10;;
55527;SDS011;52818;43.308;21.916;2023-12-20T08:28:13;215.40;;;147.30;;
55527;SDS011;52818;43.308;21.916;2023-12-20T08:30:13;212.70;;;148.50;;
55527;SDS011;52818;43.308;21.916;2023-12-20T08:32:13;213.70;;;145.70;;
55527;SDS011;52818;43.308;21.916;2023-12-20T08:34:13;205.20;;;143.20;;
55527;SDS011;52818;43.308;21.916;2023-12-20T08:36:13;204.20;;;140.10;;
55527;SDS011;52818;43.308;21.916;2023-12-20T08:38:14;206.20;;;139.10;;
55527;SDS011;52818;43.308;21.916;2023-12-20T08:40:14;193.60;;;133.60;;
55527;SDS011;52818;43.308;21.916;2023-12-20T08:42:14;193.90;;;133.20;;
55527;SDS011;52818;43.308;21.916;2023-12-20T08:44:14;207.70;;;138.20;;
55527;SDS011;52818;43.308;21.916;2023-12-20T08:46:14;193.10;;;132.40;;
55527;SDS011;52818;43.308;21.916;2023-12-20T08:48:14;218.80;;;147.70;;
55527;SDS011;52818;43.308;21.916;2023-12-20T08:50:14;231.60;;;159.80;;
55527;SDS011;52818;43.308;21.916;2023-12-20T08:52:14;261.70;;;176.40;;
55527;SDS011;52818;43.308;21.916;2023-12-20T08:54:14;260.60;;;176.10;;
55527;SDS011;52818;43.308;21.916;2023-12-20T08:56:14;268.40;;;182.00;;
55527;SDS011;52818;43.308;21.916;2023-12-20T08:58:14;264.40;;;179.80;;
55527;SDS011;52818;43.308;21.916;2023-12-20T09:00:15;250.00;;;168.70;;
55527;SDS011;52818;43.308;21.916;2023-12-20T09:02:15;237.10;;;159.40;;
55527;SDS011;52818;43.308;21.916;2023-12-20T09:04:16;231.40;;;157.10;;
55527;SDS011;52818;43.308;21.916;2023-12-20T09:06:15;231.10;;;157.80;;
55527;SDS011;52818;43.308;21.916;2023-12-20T09:08:15;250.60;;;162.60;;
55527;SDS011;52818;43.308;21.916;2023-12-20T09:10:15;256.20;;;162.70;;
55527;SDS011;52818;43.308;21.916;2023-12-20T09:12:17;240.90;;;154.10;;
55527;SDS011;52818;43.308;21.916;2023-12-20T09:14:15;207.20;;;131.90;;
55527;SDS011;52818;43.308;21.916;2023-12-20T09:16:15;200.50;;;125.80;;
55527;SDS011;52818;43.308;21.916;2023-12-20T09:18:16;197.20;;;122.60;;
55527;SDS011;52818;43.308;21.916;2023-12-20T09:20:15;179.10;;;115.20;;
55527;SDS011;52818;43.308;21.916;2023-12-20T09:22:16;182.50;;;117.30;;
55527;SDS011;52818;43.308;21.916;2023-12-20T09:24:16;192.50;;;121.90;;
55527;SDS011;52818;43.308;21.916;2023-12-20T09:26:16;207.20;;;132.90;;
55527;SDS011;52818;43.308;21.916;2023-12-20T09:28:16;219.60;;;140.80;;
55527;SDS011;52818;43.308;21.916;2023-12-20T09:30:16;249.80;;;161.40;;
55527;SDS011;52818;43.308;21.916;2023-12-20T09:32:16;240.90;;;160.30;;
55527;SDS011;52818;43.308;21.916;2023-12-20T09:34:16;251.50;;;165.90;;
55527;SDS011;52818;43.308;21.916;2023-12-20T09:36:16;244.50;;;161.80;;
55527;SDS011;52818;43.308;21.916;2023-12-20T09:38:16;222.30;;;150.30;;
55527;SDS011;52818;43.308;21.916;2023-12-20T09:40:17;229.00;;;150.40;;
55527;SDS011;52818;43.308;21.916;2023-12-20T09:42:17;201.80;;;134.50;;
55527;SDS011;52818;43.308;21.916;2023-12-20T09:44:17;182.60;;;121.30;;
55527;SDS011;52818;43.308;21.916;2023-12-20T09:46:17;183.10;;;123.10;;
55527;SDS011;52818;43.308;21.916;2023-12-20T09:48:17;161.00;;;106.20;;
55527;SDS011;52818;43.308;21.916;2023-12-20T09:50:18;149.30;;;101.50;;
55527;SDS011;52818;43.308;21.916;2023-12-20T09:52:17;138.80;;;89.80;;
55527;SDS011;52818;43.308;21.916;2023-12-20T09:54:17;132.20;;;85.60;;
55527;SDS011;52818;43.308;21.916;2023-12-20T09:56:17;97.80;;;64.30;;
55527;SDS011;52818;43.308;21.916;2023-12-20T09:58:17;87.20;;;56.50;;
55527;SDS011;52818;43.308;21.916;2023-12-20T10:00:17;88.80;;;54.50;;
55527;SDS011;52818;43.308;21.916;2023-12-20T10:02:17;82.40;;;56.00;;
55527;SDS011;52818;43.308;21.916;2023-12-20T10:04:18;112.60;;;78.50;;
55527;SDS011;52818;43.308;21.916;2023-12-20T10:06:18;116.60;;;74.30;;
55527;SDS011;52818;43.308;21.916;2023-12-20T10:08:18;101.50;;;63.60;;
55527;SDS011;52818;43.308;21.916;2023-12-20T10:10:18;117.90;;;72.80;;
55527;SDS011;52818;43.308;21.916;2023-12-20T10:12:18;111.00;;;69.30;;
55527;SDS011;52818;43.308;21.916;2023-12-20T10:14:18;120.40;;;77.60;;
55527;SDS011;52818;43.308;21.916;2023-12-20T10:16:18;100.30;;;61.90;;
55527;SDS011;52818;43.308;21.916;2023-12-20T10:18:18;138.90;;;86.80;;
55527;SDS011;52818;43.308;21.916;2023-12-20T10:20:18;185.00;;;111.70;;
55527;SDS011;52818;43.308;21.916;2023-12-20T10:22:19;128.30;;;78.00;;
55527;SDS011;52818;43.308;21.916;2023-12-20T10:24:18;154.70;;;94.30;;
55527;SDS011;52818;43.308;21.916;2023-12-20T10:26:19;153.10;;;92.80;;
55527;SDS011;52818;43.308;21.916;2023-12-20T10:28:19;94.10;;;63.80;;
55527;SDS011;52818;43.308;21.916;2023-12-20T10:30:19;141.00;;;89.50;;
55527;SDS011;52818;43.308;21.916;2023-12-20T10:32:21;120.70;;;78.30;;
55527;SDS011;52818;43.308;21.916;2023-12-20T10:34:19;100.20;;;65.10;;
55527;SDS011;52818;43.308;21.916;2023-12-20T10:36:20;134.50;;;89.60;;
55527;SDS011;52818;43.308;21.916;2023-12-20T10:38:19;143.00;;;94.50;;
55527;SDS011;52818;43.308;21.916;2023-12-20T10:40:19;96.50;;;63.90;;
55527;SDS011;52818;43.308;21.916;2023-12-20T10:42:19;97.60;;;68.30;;
55527;SDS011;52818;43.308;21.916;2023-12-20T10:44:19;102.30;;;65.40;;
55527;SDS011;52818;43.308;21.916;2023-12-20T10:46:20;97.50;;;59.80;;
55527;SDS011;52818;43.308;21.916;2023-12-20T10:48:20;98.60;;;65.50;;
55527;SDS011;52818;43.308;21.916;2023-12-20T10:50:20;93.70;;;59.50;;
55527;SDS011;52818;43.308;21.916;2023-12-20T10:52:20;88.20;;;56.00;;
55527;SDS011;52818;43.308;21.916;2023-12-20T10:54:20;82.70;;;56.20;;
55527;SDS011;52818;43.308;21.916;2023-12-20T10:56:20;87.50;;;58.50;;
55527;SDS011;52818;43.308;21.916;2023-12-20T10:58:20;93.30;;;62.20;;
55527;SDS011;52818;43.308;21.916;2023-12-20T11:00:20;90.80;;;62.50;;
55527;SDS011;52818;43.308;21.916;2023-12-20T11:02:21;94.50;;;65.90;;
55527;SDS011;52818;43.308;21.916;2023-12-20T11:04:23;94.00;;;61.40;;
55527;SDS011;52818;43.308;21.916;2023-12-20T11:06:30;99.30;;;66.70;;
55527;SDS011;52818;43.308;21.916;2023-12-20T11:08:22;120.80;;;82.40;;
55527;SDS011;52818;43.308;21.916;2023-12-20T11:10:21;111.40;;;77.50;;
55527;SDS011;52818;43.308;21.916;2023-12-20T11:12:22;106.00;;;71.40;;
55527;SDS011;52818;43.308;21.916;2023-12-20T11:14:22;105.10;;;72.10;;
55527;SDS011;52818;43.308;21.916;2023-12-20T11:16:21;104.00;;;70.50;;
55527;SDS011;52818;43.308;21.916;2023-12-20T11:18:25;104.70;;;70.00;;
55527;SDS011;52818;43.308;21.916;2023-12-20T11:20:22;98.00;;;65.80;;
55527;SDS011;52818;43.308;21.916;2023-12-20T11:22:21;101.60;;;69.70;;
55527;SDS011;52818;43.308;21.916;2023-12-20T11:24:21;108.20;;;68.30;;
55527;SDS011;52818;43.308;21.916;2023-12-20T11:26:22;113.50;;;71.40;;
55527;SDS011;52818;43.308;21.916;2023-12-20T11:28:22;116.60;;;74.50;;